createdAt,value
2019-05-02T00:00:47.888Z,1008.02
2019-05-02T00:01:47.823Z,1007.99
2019-05-02T00:02:47.819Z,1007.99
2019-05-02T00:03:47.742Z,1008.02
2019-05-02T00:04:51.019Z,1008.01
2019-05-02T00:05:47.671Z,1007.93
2019-05-02T00:06:47.613Z,1007.97
2019-05-02T00:07:47.614Z,1007.94
2019-05-02T00:08:47.542Z,1007.93
2019-05-02T00:09:50.168Z,1007.93
2019-05-02T00:10:47.488Z,1007.94
2019-05-02T00:11:58.298Z,1007.95
2019-05-02T00:12:47.363Z,1007.91
2019-05-02T00:13:47.320Z,1007.86
2019-05-02T00:14:47.239Z,1007.88
2019-05-02T00:15:47.247Z,1007.85
2019-05-02T00:16:49.307Z,1007.83
2019-05-02T00:17:47.110Z,1007.85
2019-05-02T00:18:47.071Z,1007.87
2019-05-02T00:19:49.993Z,1007.85
2019-05-02T00:20:47.037Z,1007.84
2019-05-02T00:21:46.962Z,1007.80
2019-05-02T00:22:47.941Z,1007.80
2019-05-02T00:23:46.838Z,1007.83
2019-05-02T00:24:46.798Z,1007.83
2019-05-02T00:25:47.201Z,1007.81
2019-05-02T00:26:46.794Z,1007.81
2019-05-02T00:27:46.679Z,1007.78
2019-05-02T00:28:47.942Z,1007.79
2019-05-02T00:29:46.640Z,1007.78
2019-05-02T00:30:46.554Z,1007.81
2019-05-02T00:31:48.680Z,1007.77
2019-05-02T00:32:46.463Z,1007.75
2019-05-02T00:33:46.440Z,1007.75
2019-05-02T00:34:46.389Z,1007.75
2019-05-02T00:35:47.596Z,1007.74
2019-05-02T00:36:46.326Z,1007.75
2019-05-02T00:37:46.253Z,1007.75
2019-05-02T00:38:46.216Z,1007.71
2019-05-02T00:39:49.252Z,1007.72
2019-05-02T00:40:46.533Z,1007.69
2019-05-02T00:41:46.077Z,1007.73
2019-05-02T00:42:46.028Z,1007.70
2019-05-02T00:43:45.966Z,1007.72
2019-05-02T00:44:46.865Z,1007.67
2019-05-02T00:45:45.898Z,1007.65
2019-05-02T00:46:45.891Z,1007.64
2019-05-02T00:47:47.870Z,1007.66
2019-05-02T00:48:45.751Z,1007.70
2019-05-02T00:49:45.746Z,1007.65
2019-05-02T00:50:50.654Z,1007.64
2019-05-02T00:51:45.656Z,1007.62
2019-05-02T00:52:45.633Z,1007.61
2019-05-02T00:53:48.283Z,1007.63
2019-05-02T00:54:45.532Z,1007.59
2019-05-02T00:55:45.469Z,1007.59
2019-05-02T00:56:45.431Z,1007.54
2019-05-02T00:57:45.384Z,1007.58
2019-05-02T00:58:45.372Z,1007.54
2019-05-02T00:59:45.311Z,1007.55
2019-05-02T01:00:48.613Z,1007.52
2019-05-02T01:01:45.199Z,1007.51
2019-05-02T01:02:45.142Z,1007.51
2019-05-02T01:03:47.166Z,1007.49
2019-05-02T01:04:45.083Z,1007.46
2019-05-02T01:05:45.026Z,1007.50
2019-05-02T01:06:49.282Z,1007.46
2019-05-02T01:07:44.931Z,1007.46
2019-05-02T01:08:44.883Z,1007.44
2019-05-02T01:09:46.792Z,1007.49
2019-05-02T01:10:44.791Z,1007.46
2019-05-02T01:11:44.793Z,1007.42
2019-05-02T01:12:46.076Z,1007.43
2019-05-02T01:13:44.656Z,1007.44
2019-05-02T01:14:44.613Z,1007.40
2019-05-02T01:15:45.974Z,1007.39
2019-05-02T01:16:44.557Z,1007.39
2019-05-02T01:17:44.475Z,1007.39
2019-05-02T01:18:44.478Z,1007.37
2019-05-02T01:19:47.348Z,1007.36
2019-05-02T01:20:44.345Z,1007.37
2019-05-02T01:21:44.305Z,1007.38
2019-05-02T01:22:47.146Z,1007.36
2019-05-02T01:23:44.269Z,1007.38
2019-05-02T01:24:44.243Z,1007.38
2019-05-02T01:25:47.359Z,1007.40
2019-05-02T01:26:44.123Z,1007.39
2019-05-02T01:27:44.038Z,1007.39
2019-05-02T01:28:44.031Z,1007.40
2019-05-02T01:29:44.012Z,1007.38
2019-05-02T01:30:43.984Z,1007.36
2019-05-02T01:31:43.888Z,1007.38
2019-05-02T01:32:43.867Z,1007.38
2019-05-02T01:33:43.817Z,1007.37
2019-05-02T01:34:43.756Z,1007.36
2019-05-02T01:35:43.691Z,1007.35
2019-05-02T01:36:43.705Z,1007.36
2019-05-02T01:37:43.610Z,1007.34
2019-05-02T01:38:43.573Z,1007.38
2019-05-02T01:39:44.085Z,1007.35
2019-05-02T01:40:43.493Z,1007.35
2019-05-02T01:41:43.448Z,1007.37
2019-05-02T01:42:44.459Z,1007.34
2019-05-02T01:43:43.347Z,1007.34
2019-05-02T01:44:43.321Z,1007.30
2019-05-02T01:45:46.560Z,1007.32
2019-05-02T01:46:43.191Z,1007.28
2019-05-02T01:47:43.156Z,1007.31
2019-05-02T01:48:45.920Z,1007.33
2019-05-02T01:49:43.061Z,1007.24
2019-05-02T01:50:43.047Z,1007.29
2019-05-02T01:51:47.631Z,1007.28
2019-05-02T01:52:42.937Z,1007.29
2019-05-02T01:53:42.913Z,1007.28
2019-05-02T01:54:45.804Z,1007.28
2019-05-02T01:55:42.840Z,1007.28
2019-05-02T01:56:42.776Z,1007.28
2019-05-02T01:57:44.686Z,1007.30
2019-05-02T01:58:42.680Z,1007.27
2019-05-02T01:59:42.677Z,1007.26
2019-05-02T02:00:44.742Z,1007.29
2019-05-02T02:01:42.565Z,1007.27
2019-05-02T02:02:42.522Z,1007.27
2019-05-02T02:03:45.705Z,1007.28
2019-05-02T02:04:42.416Z,1007.26
2019-05-02T02:05:42.435Z,1007.26
2019-05-02T02:06:43.286Z,1007.23
2019-05-02T02:07:42.301Z,1007.23
2019-05-02T02:08:42.278Z,1007.22
2019-05-02T02:09:43.908Z,1007.22
2019-05-02T02:10:43.829Z,1007.23
2019-05-02T02:11:42.133Z,1007.20
2019-05-02T02:13:02.199Z,1007.20
2019-05-02T02:13:42.026Z,1007.19
2019-05-02T02:14:41.979Z,1007.21
2019-05-02T02:15:41.934Z,1007.19
2019-05-02T02:16:41.893Z,1007.19
2019-05-02T02:17:41.862Z,1007.19
2019-05-02T02:18:41.794Z,1007.21
2019-05-02T02:19:41.773Z,1007.16
2019-05-02T02:20:45.159Z,1007.16
2019-05-02T02:21:43.064Z,1007.20
2019-05-02T02:22:41.641Z,1007.21
2019-05-02T02:23:44.896Z,1007.18
2019-05-02T02:24:41.558Z,1007.19
2019-05-02T02:25:41.477Z,1007.16
2019-05-02T02:26:43.688Z,1007.19
2019-05-02T02:27:41.397Z,1007.21
2019-05-02T02:28:42.146Z,1007.19
2019-05-02T02:29:43.981Z,1007.20
2019-05-02T02:30:41.270Z,1007.18
2019-05-02T02:31:46.903Z,1007.20
2019-05-02T02:32:41.204Z,1007.21
2019-05-02T02:33:47.924Z,1007.18
2019-05-02T02:34:41.099Z,1007.20
2019-05-02T02:35:49.742Z,1007.20
2019-05-02T02:36:41.002Z,1007.19
2019-05-02T02:37:51.947Z,1007.19
2019-05-02T02:38:40.937Z,1007.18
2019-05-02T02:39:40.863Z,1007.18
2019-05-02T02:40:40.858Z,1007.18
2019-05-02T02:41:45.318Z,1007.18
2019-05-02T02:42:40.762Z,1007.17
2019-05-02T02:43:40.735Z,1007.17
2019-05-02T02:44:41.880Z,1007.15
2019-05-02T02:45:40.599Z,1007.18
2019-05-02T02:46:40.561Z,1007.14
2019-05-02T02:47:41.149Z,1007.13
2019-05-02T02:48:42.476Z,1007.09
2019-05-02T02:49:40.471Z,1007.21
2019-05-02T02:50:43.258Z,1007.14
2019-05-02T02:51:40.380Z,1007.19
2019-05-02T02:52:44.679Z,1007.17
2019-05-02T02:53:40.254Z,1007.14
2019-05-02T02:54:43.290Z,1007.15
2019-05-02T02:55:40.211Z,1007.10
2019-05-02T02:56:40.916Z,1007.13
2019-05-02T02:57:40.093Z,1007.13
2019-05-02T02:58:45.832Z,1007.11
2019-05-02T02:59:40.062Z,1007.09
2019-05-02T03:00:41.431Z,1007.12
2019-05-02T03:01:39.899Z,1007.07
2019-05-02T03:02:47.574Z,1007.04
2019-05-02T03:03:39.806Z,1007.01
2019-05-02T03:04:43.987Z,1007.06
2019-05-02T03:05:39.735Z,1007.06
2019-05-02T03:06:45.093Z,1007.04
2019-05-02T03:07:39.665Z,1007.00
2019-05-02T03:08:46.096Z,1007.02
2019-05-02T03:09:39.604Z,1007.01
2019-05-02T03:10:44.784Z,1007.00
2019-05-02T03:11:39.504Z,1006.96
2019-05-02T03:12:41.653Z,1007.00
2019-05-02T03:13:51.160Z,1006.97
2019-05-02T03:14:41.046Z,1006.96
2019-05-02T03:15:39.323Z,1006.96
2019-05-02T03:16:46.182Z,1006.94
2019-05-02T03:17:39.217Z,1006.93
2019-05-02T03:18:40.772Z,1006.93
2019-05-02T03:19:39.160Z,1006.94
2019-05-02T03:20:40.714Z,1006.93
2019-05-02T03:21:39.035Z,1006.92
2019-05-02T03:22:41.493Z,1006.89
2019-05-02T03:23:38.966Z,1006.93
2019-05-02T03:24:43.905Z,1006.90
2019-05-02T03:25:50.714Z,1006.89
2019-05-02T03:26:38.816Z,1006.87
2019-05-02T03:27:40.428Z,1006.86
2019-05-02T03:28:38.733Z,1006.91
2019-05-02T03:29:43.908Z,1006.87
2019-05-02T03:30:38.649Z,1006.88
2019-05-02T03:31:38.673Z,1006.89
2019-05-02T03:32:38.592Z,1006.88
2019-05-02T03:33:51.490Z,1006.85
2019-05-02T03:34:47.488Z,1006.85
2019-05-02T03:35:48.146Z,1006.91
2019-05-02T03:36:38.431Z,1006.90
2019-05-02T03:37:38.413Z,1006.89
2019-05-02T03:38:38.295Z,1006.87
2019-05-02T03:39:38.270Z,1006.84
2019-05-02T03:40:39.616Z,1006.83
2019-05-02T03:41:38.198Z,1006.87
2019-05-02T03:42:44.838Z,1006.86
2019-05-02T03:43:38.086Z,1006.84
2019-05-02T03:44:38.081Z,1006.81
2019-05-02T03:45:39.911Z,1006.82
2019-05-02T03:46:37.942Z,1006.79
2019-05-02T03:47:43.552Z,1006.75
2019-05-02T03:48:37.908Z,1006.72
2019-05-02T03:49:40.894Z,1006.70
2019-05-02T03:50:37.810Z,1006.67
2019-05-02T03:51:37.747Z,1006.70
2019-05-02T03:52:43.982Z,1006.75
2019-05-02T03:53:37.702Z,1006.78
2019-05-02T03:54:49.049Z,1006.72
2019-05-02T03:55:37.549Z,1006.71
2019-05-02T03:56:37.506Z,1006.69
2019-05-02T03:57:41.728Z,1006.70
2019-05-02T03:58:37.415Z,1006.71
2019-05-02T03:59:39.407Z,1006.72
2019-05-02T04:00:37.349Z,1006.71
2019-05-02T04:01:41.339Z,1006.73
2019-05-02T04:02:37.244Z,1006.67
2019-05-02T04:03:40.777Z,1006.72
2019-05-02T04:04:37.155Z,1006.71
2019-05-02T04:05:40.309Z,1006.71
2019-05-02T04:06:37.069Z,1006.71
2019-05-02T04:07:40.430Z,1006.71
2019-05-02T04:08:36.982Z,1006.70
2019-05-02T04:09:39.526Z,1006.69
2019-05-02T04:10:36.898Z,1006.67
2019-05-02T04:11:39.014Z,1006.68
2019-05-02T04:12:36.876Z,1006.71
2019-05-02T04:13:38.136Z,1006.70
2019-05-02T04:14:38.395Z,1006.70
2019-05-02T04:15:37.575Z,1006.65
2019-05-02T04:16:36.643Z,1006.68
2019-05-02T04:17:37.375Z,1006.71
2019-05-02T04:18:36.548Z,1006.67
2019-05-02T04:19:36.658Z,1006.72
2019-05-02T04:20:36.460Z,1006.70
2019-05-02T04:21:36.468Z,1006.69
2019-05-02T04:22:36.385Z,1006.72
2019-05-02T04:23:36.346Z,1006.72
2019-05-02T04:24:36.305Z,1006.68
2019-05-02T04:25:36.284Z,1006.70
2019-05-02T04:26:36.209Z,1006.71
2019-05-02T04:27:36.202Z,1006.71
2019-05-02T04:28:36.121Z,1006.73
2019-05-02T04:29:36.104Z,1006.72
2019-05-02T04:30:36.048Z,1006.70
2019-05-02T04:31:36.002Z,1006.72
2019-05-02T04:32:35.954Z,1006.68
2019-05-02T04:33:36.595Z,1006.72
2019-05-02T04:34:35.867Z,1006.73
2019-05-02T04:35:36.442Z,1006.74
2019-05-02T04:36:35.787Z,1006.72
2019-05-02T04:37:40.930Z,1006.72
2019-05-02T04:38:46.538Z,1006.76
2019-05-02T04:39:38.856Z,1006.75
2019-05-02T04:40:41.761Z,1006.76
2019-05-02T04:41:35.567Z,1006.76
2019-05-02T04:42:35.529Z,1006.80
2019-05-02T04:43:40.787Z,1006.79
2019-05-02T04:44:46.691Z,1006.75
2019-05-02T04:45:47.236Z,1006.76
2019-05-02T04:46:35.351Z,1006.71
2019-05-02T04:47:35.313Z,1006.73
2019-05-02T04:48:43.864Z,1006.74
2019-05-02T04:49:36.807Z,1006.74
2019-05-02T04:50:37.655Z,1006.75
2019-05-02T04:51:37.951Z,1006.75
2019-05-02T04:52:38.297Z,1006.79
2019-05-02T04:53:40.904Z,1006.77
2019-05-02T04:54:35.018Z,1006.76
2019-05-02T04:55:35.007Z,1006.76
2019-05-02T04:56:39.745Z,1006.71
2019-05-02T04:57:41.131Z,1006.75
2019-05-02T04:58:37.198Z,1006.75
2019-05-02T04:59:34.799Z,1006.73
2019-05-02T05:00:34.765Z,1006.75
2019-05-02T05:01:43.419Z,1006.75
2019-05-02T05:02:39.306Z,1006.78
2019-05-02T05:03:34.638Z,1006.77
2019-05-02T05:04:42.016Z,1006.78
2019-05-02T05:05:34.568Z,1006.76
2019-05-02T05:06:34.507Z,1006.77
2019-05-02T05:07:40.818Z,1006.80
2019-05-02T05:08:34.423Z,1006.79
2019-05-02T05:09:34.384Z,1006.80
2019-05-02T05:10:40.364Z,1006.81
2019-05-02T05:11:34.292Z,1006.80
2019-05-02T05:12:40.006Z,1006.82
2019-05-02T05:13:34.206Z,1006.85
2019-05-02T05:14:41.307Z,1006.85
2019-05-02T05:15:41.183Z,1006.89
2019-05-02T05:16:34.108Z,1006.88
2019-05-02T05:17:34.266Z,1006.90
2019-05-02T05:18:33.998Z,1006.92
2019-05-02T05:19:33.968Z,1006.89
2019-05-02T05:20:33.920Z,1006.93
2019-05-02T05:21:33.876Z,1006.95
2019-05-02T05:22:36.527Z,1006.94
2019-05-02T05:23:33.804Z,1006.94
2019-05-02T05:24:38.568Z,1006.93
2019-05-02T05:25:33.700Z,1006.91
2019-05-02T05:26:38.068Z,1006.91
2019-05-02T05:27:33.623Z,1006.92
2019-05-02T05:28:35.075Z,1006.92
2019-05-02T05:29:33.537Z,1006.94
2019-05-02T05:30:37.671Z,1006.88
2019-05-02T05:31:33.454Z,1006.88
2019-05-02T05:32:33.434Z,1006.89
2019-05-02T05:33:33.371Z,1006.88
2019-05-02T05:34:33.330Z,1006.89
2019-05-02T05:35:33.292Z,1006.95
2019-05-02T05:36:34.155Z,1006.96
2019-05-02T05:37:33.245Z,1006.94
2019-05-02T05:38:35.708Z,1006.95
2019-05-02T05:39:33.128Z,1006.93
2019-05-02T05:40:33.080Z,1006.93
2019-05-02T05:41:33.040Z,1006.93
2019-05-02T05:42:33.484Z,1006.93
2019-05-02T05:43:44.754Z,1006.90
2019-05-02T05:44:32.935Z,1006.89
2019-05-02T05:45:32.869Z,1006.91
2019-05-02T05:46:33.433Z,1006.90
2019-05-02T05:47:32.822Z,1006.94
2019-05-02T05:48:37.207Z,1006.94
2019-05-02T05:49:32.723Z,1006.93
2019-05-02T05:50:37.671Z,1006.94
2019-05-02T05:51:32.623Z,1006.94
2019-05-02T05:52:33.195Z,1006.94
2019-05-02T05:53:32.540Z,1006.95
2019-05-02T05:54:32.990Z,1006.94
2019-05-02T05:55:32.476Z,1006.91
2019-05-02T05:56:36.712Z,1006.92
2019-05-02T05:57:32.374Z,1006.88
2019-05-02T05:58:32.330Z,1006.91
2019-05-02T05:59:32.304Z,1006.89
2019-05-02T06:00:32.244Z,1006.85
2019-05-02T06:01:34.817Z,1006.88
2019-05-02T06:02:32.159Z,1006.89
2019-05-02T06:03:33.954Z,1006.90
2019-05-02T06:04:33.294Z,1006.90
2019-05-02T06:05:33.241Z,1006.93
2019-05-02T06:06:32.004Z,1006.90
2019-05-02T06:07:33.662Z,1006.93
2019-05-02T06:08:31.916Z,1006.93
2019-05-02T06:09:32.492Z,1006.92
2019-05-02T06:10:31.835Z,1006.90
2019-05-02T06:11:31.793Z,1006.93
2019-05-02T06:12:35.383Z,1006.93
2019-05-02T06:13:31.704Z,1006.95
2019-05-02T06:14:34.204Z,1006.92
2019-05-02T06:15:33.842Z,1006.95
2019-05-02T06:16:31.590Z,1006.90
2019-05-02T06:17:31.546Z,1006.91
2019-05-02T06:18:31.526Z,1006.96
2019-05-02T06:19:31.481Z,1006.91
2019-05-02T06:20:31.957Z,1006.91
2019-05-02T06:21:31.372Z,1006.90
2019-05-02T06:22:31.365Z,1006.92
2019-05-02T06:23:36.415Z,1006.92
2019-05-02T06:24:33.783Z,1006.88
2019-05-02T06:25:33.872Z,1006.89
2019-05-02T06:26:31.172Z,1006.88
2019-05-02T06:27:31.145Z,1006.89
2019-05-02T06:28:31.099Z,1006.89
2019-05-02T06:29:31.092Z,1006.87
2019-05-02T06:30:31.224Z,1006.89
2019-05-02T06:31:30.966Z,1006.92
2019-05-02T06:32:30.929Z,1006.95
2019-05-02T06:33:32.358Z,1006.88
2019-05-02T06:34:30.880Z,1006.88
2019-05-02T06:35:30.803Z,1006.87
2019-05-02T06:36:32.008Z,1006.87
2019-05-02T06:37:30.967Z,1006.85
2019-05-02T06:38:30.688Z,1006.88
2019-05-02T06:39:31.979Z,1006.85
2019-05-02T06:40:30.657Z,1006.86
2019-05-02T06:41:30.750Z,1006.83
2019-05-02T06:42:32.718Z,1006.83
2019-05-02T06:43:30.586Z,1006.87
2019-05-02T06:44:30.443Z,1006.90
2019-05-02T06:45:32.203Z,1006.90
2019-05-02T06:46:30.366Z,1006.89
2019-05-02T06:47:30.461Z,1006.83
2019-05-02T06:48:30.407Z,1006.84
2019-05-02T06:49:30.228Z,1006.82
2019-05-02T06:50:33.381Z,1006.89
2019-05-02T06:51:30.149Z,1006.85
2019-05-02T06:52:32.698Z,1006.85
2019-05-02T06:53:30.071Z,1006.78
2019-05-02T06:54:30.026Z,1006.77
2019-05-02T06:55:36.226Z,1006.80
2019-05-02T06:56:30.003Z,1006.77
2019-05-02T06:57:29.903Z,1006.79
2019-05-02T06:58:29.880Z,1006.79
2019-05-02T06:59:29.829Z,1006.79
2019-05-02T07:00:39.582Z,1006.76
2019-05-02T07:01:29.738Z,1006.76
2019-05-02T07:02:33.678Z,1006.79
2019-05-02T07:03:29.675Z,1006.77
2019-05-02T07:04:29.626Z,1006.79
2019-05-02T07:05:29.590Z,1006.80
2019-05-02T07:06:29.813Z,1006.76
2019-05-02T07:07:31.391Z,1006.78
2019-05-02T07:08:29.509Z,1006.73
2019-05-02T07:09:40.461Z,1006.78
2019-05-02T07:10:37.855Z,1006.76
2019-05-02T07:11:33.302Z,1006.78
2019-05-02T07:12:29.321Z,1006.75
2019-05-02T07:13:29.319Z,1006.74
2019-05-02T07:14:29.220Z,1006.77
2019-05-02T07:15:33.563Z,1006.76
2019-05-02T07:16:38.111Z,1006.75
2019-05-02T07:17:32.124Z,1006.76
2019-05-02T07:18:29.085Z,1006.73
2019-05-02T07:19:29.388Z,1006.74
2019-05-02T07:20:28.983Z,1006.75
2019-05-02T07:21:28.952Z,1006.77
2019-05-02T07:22:33.107Z,1006.79
2019-05-02T07:23:28.873Z,1006.76
2019-05-02T07:24:30.816Z,1006.75
2019-05-02T07:25:28.787Z,1006.76
2019-05-02T07:26:28.726Z,1006.72
2019-05-02T07:27:33.793Z,1006.76
2019-05-02T07:28:28.655Z,1006.79
2019-05-02T07:29:28.634Z,1006.77
2019-05-02T07:30:30.121Z,1006.76
2019-05-02T07:31:28.552Z,1006.76
2019-05-02T07:32:28.515Z,1006.76
2019-05-02T07:33:32.427Z,1006.72
2019-05-02T07:34:28.426Z,1006.71
2019-05-02T07:35:28.374Z,1006.74
2019-05-02T07:36:31.148Z,1006.72
2019-05-02T07:37:28.303Z,1006.75
2019-05-02T07:38:28.247Z,1006.73
2019-05-02T07:39:28.232Z,1006.70
2019-05-02T07:40:28.176Z,1006.70
2019-05-02T07:41:29.014Z,1006.74
2019-05-02T07:42:28.144Z,1006.74
2019-05-02T07:43:28.114Z,1006.73
2019-05-02T07:44:32.716Z,1006.74
2019-05-02T07:45:27.993Z,1006.74
2019-05-02T07:46:27.932Z,1006.73
2019-05-02T07:47:28.913Z,1006.73
2019-05-02T07:48:27.866Z,1006.72
2019-05-02T07:49:32.215Z,1006.76
2019-05-02T07:50:28.733Z,1006.76
2019-05-02T07:51:27.722Z,1006.75
2019-05-02T07:52:28.936Z,1006.79
2019-05-02T07:53:27.639Z,1006.79
2019-05-02T07:54:27.587Z,1006.83
2019-05-02T07:55:30.276Z,1006.83
2019-05-02T07:56:27.518Z,1006.82
2019-05-02T07:57:30.572Z,1006.80
2019-05-02T07:58:27.442Z,1006.83
2019-05-02T07:59:27.389Z,1006.82
2019-05-02T08:00:27.353Z,1006.85
2019-05-02T08:01:27.317Z,1006.86
2019-05-02T08:02:27.275Z,1006.86
2019-05-02T08:03:29.484Z,1006.82
2019-05-02T08:04:27.185Z,1006.83
2019-05-02T08:05:27.152Z,1006.86
2019-05-02T08:06:34.917Z,1006.89
2019-05-02T08:07:34.066Z,1006.89
2019-05-02T08:08:29.810Z,1006.89
2019-05-02T08:09:27.021Z,1006.85
2019-05-02T08:10:26.969Z,1006.87
2019-05-02T08:11:26.928Z,1006.85
2019-05-02T08:12:26.890Z,1006.84
2019-05-02T08:13:26.825Z,1006.87
2019-05-02T08:14:29.411Z,1006.90
2019-05-02T08:15:26.799Z,1006.90
2019-05-02T08:16:27.459Z,1006.88
2019-05-02T08:17:26.683Z,1006.91
2019-05-02T08:18:30.448Z,1006.88
2019-05-02T08:19:26.587Z,1006.93
2019-05-02T08:20:26.558Z,1006.94
2019-05-02T08:21:27.393Z,1006.93
2019-05-02T08:22:26.474Z,1006.95
2019-05-02T08:23:27.883Z,1006.95
2019-05-02T08:24:26.396Z,1006.95
2019-05-02T08:25:26.356Z,1006.97
2019-05-02T08:26:26.308Z,1006.95
2019-05-02T08:27:29.194Z,1006.93
2019-05-02T08:28:26.342Z,1006.92
2019-05-02T08:29:28.800Z,1006.96
2019-05-02T08:30:26.153Z,1006.91
2019-05-02T08:31:26.128Z,1006.92
2019-05-02T08:32:26.078Z,1006.93
2019-05-02T08:33:29.433Z,1006.90
2019-05-02T08:34:26.004Z,1006.91
2019-05-02T08:35:28.029Z,1006.90
2019-05-02T08:36:25.914Z,1006.90
2019-05-02T08:37:25.870Z,1006.92
2019-05-02T08:38:25.861Z,1006.92
2019-05-02T08:39:33.487Z,1006.94
2019-05-02T08:40:25.761Z,1006.95
2019-05-02T08:41:25.719Z,1006.94
2019-05-02T08:42:27.715Z,1006.92
2019-05-02T08:43:25.666Z,1006.97
2019-05-02T08:44:25.608Z,1006.93
2019-05-02T08:45:25.558Z,1006.97
2019-05-02T08:46:25.524Z,1006.93
2019-05-02T08:47:28.716Z,1006.98
2019-05-02T08:48:25.553Z,1006.97
2019-05-02T08:49:25.421Z,1006.98
2019-05-02T08:50:27.182Z,1006.94
2019-05-02T08:51:25.323Z,1006.98
2019-05-02T08:52:25.284Z,1006.97
2019-05-02T08:53:25.245Z,1006.93
2019-05-02T08:54:27.938Z,1006.94
2019-05-02T08:55:25.154Z,1006.96
2019-05-02T08:56:25.112Z,1006.96
2019-05-02T08:57:25.116Z,1006.97
2019-05-02T08:58:25.025Z,1006.94
2019-05-02T08:59:26.193Z,1006.97
2019-05-02T09:00:24.958Z,1006.90
2019-05-02T09:01:34.980Z,1006.91
2019-05-02T09:02:25.967Z,1006.89
2019-05-02T09:03:24.916Z,1006.90
2019-05-02T09:04:29.277Z,1006.89
2019-05-02T09:05:24.785Z,1006.85
2019-05-02T09:06:24.716Z,1006.86
2019-05-02T09:07:25.083Z,1006.84
2019-05-02T09:08:24.628Z,1006.85
2019-05-02T09:09:28.084Z,1006.85
2019-05-02T09:10:24.554Z,1006.84
2019-05-02T09:11:24.543Z,1006.84
2019-05-02T09:12:24.484Z,1006.86
2019-05-02T09:13:29.109Z,1006.88
2019-05-02T09:14:24.421Z,1006.91
2019-05-02T09:15:24.386Z,1006.87
2019-05-02T09:16:28.757Z,1006.87
2019-05-02T09:17:35.116Z,1006.86
2019-05-02T09:18:30.092Z,1006.86
2019-05-02T09:19:26.417Z,1006.91
2019-05-02T09:20:24.176Z,1006.94
2019-05-02T09:21:26.848Z,1006.92
2019-05-02T09:22:24.109Z,1006.95
2019-05-02T09:23:27.555Z,1006.93
2019-05-02T09:24:24.109Z,1006.93
2019-05-02T09:25:23.963Z,1006.94
2019-05-02T09:26:35.280Z,1006.90
2019-05-02T09:27:23.998Z,1006.93
2019-05-02T09:28:25.367Z,1006.94
2019-05-02T09:29:23.800Z,1006.94
2019-05-02T09:30:25.863Z,1006.97
2019-05-02T09:31:23.728Z,1006.92
2019-05-02T09:32:26.270Z,1006.94
2019-05-02T09:33:23.670Z,1006.90
2019-05-02T09:34:26.708Z,1006.89
2019-05-02T09:35:23.563Z,1006.94
2019-05-02T09:36:23.543Z,1006.89
2019-05-02T09:37:23.546Z,1006.93
2019-05-02T09:38:23.460Z,1006.84
2019-05-02T09:39:27.452Z,1006.87
2019-05-02T09:40:23.377Z,1006.80
2019-05-02T09:41:27.037Z,1006.83
2019-05-02T09:42:23.323Z,1006.80
2019-05-02T09:43:23.265Z,1006.76
2019-05-02T09:44:23.233Z,1006.80
2019-05-02T09:45:27.684Z,1006.77
2019-05-02T09:46:23.159Z,1006.77
2019-05-02T09:47:27.268Z,1006.76
2019-05-02T09:48:26.846Z,1006.73
2019-05-02T09:49:23.044Z,1006.70
2019-05-02T09:50:29.490Z,1006.71
2019-05-02T09:51:23.016Z,1006.68
2019-05-02T09:52:22.962Z,1006.74
2019-05-02T09:53:25.441Z,1006.72
2019-05-02T09:54:23.256Z,1006.74
2019-05-02T09:55:22.814Z,1006.73
2019-05-02T09:56:22.785Z,1006.77
2019-05-02T09:57:22.773Z,1006.80
2019-05-02T09:58:24.067Z,1006.84
2019-05-02T09:59:29.209Z,1006.82
2019-05-02T10:00:26.662Z,1006.95
2019-05-02T10:01:22.601Z,1007.30
2019-05-02T10:02:25.199Z,1007.21
2019-05-02T10:03:22.702Z,1007.22
2019-05-02T10:04:22.541Z,1007.10
2019-05-02T10:05:23.066Z,1007.08
2019-05-02T10:06:22.916Z,1006.78
2019-05-02T10:07:22.425Z,1006.79
2019-05-02T10:08:22.914Z,1006.77
2019-05-02T10:09:23.978Z,1007.05
2019-05-02T10:10:22.275Z,1007.15
2019-05-02T10:11:26.107Z,1007.18
2019-05-02T10:12:22.898Z,1007.16
2019-05-02T10:13:22.829Z,1007.03
2019-05-02T10:14:22.784Z,1006.76
2019-05-02T10:15:22.312Z,1006.94
2019-05-02T10:16:23.639Z,1006.76
2019-05-02T10:17:23.127Z,1006.98
2019-05-02T10:18:28.314Z,1007.16
2019-05-02T10:19:25.860Z,1007.10
2019-05-02T10:20:23.617Z,1007.09
2019-05-02T10:21:22.864Z,1007.03
2019-05-02T10:22:23.816Z,1007.07
2019-05-02T10:23:23.379Z,1006.98
2019-05-02T10:24:22.249Z,1006.75
2019-05-02T10:25:23.176Z,1006.88
2019-05-02T10:26:24.424Z,1006.76
2019-05-02T10:27:21.749Z,1006.67
2019-05-02T10:28:22.833Z,1006.64
2019-05-02T10:29:28.112Z,1006.75
2019-05-02T10:30:21.749Z,1006.57
2019-05-02T10:31:21.907Z,1006.61
2019-05-02T10:32:22.673Z,1006.83
2019-05-02T10:33:22.530Z,1006.79
2019-05-02T10:34:22.649Z,1006.84
2019-05-02T10:35:22.875Z,1006.85
2019-05-02T10:36:23.910Z,1006.58
2019-05-02T10:37:21.784Z,1007.03
2019-05-02T10:38:22.725Z,1007.01
2019-05-02T10:39:23.096Z,1006.76
2019-05-02T10:40:22.504Z,1006.59
2019-05-02T10:41:22.391Z,1006.59
2019-05-02T10:42:22.061Z,1006.82
2019-05-02T10:43:22.256Z,1006.54
2019-05-02T10:44:22.539Z,1006.41
2019-05-02T10:45:22.520Z,1006.55
2019-05-02T10:46:23.051Z,1006.41
2019-05-02T10:47:22.196Z,1006.42
2019-05-02T10:48:25.843Z,1006.37
2019-05-02T10:49:22.621Z,1006.63
2019-05-02T10:50:22.270Z,1006.74
2019-05-02T10:51:25.867Z,1006.67
2019-05-02T10:52:28.877Z,1006.62
2019-05-02T10:53:21.926Z,1006.54
2019-05-02T10:54:23.046Z,1006.34
2019-05-02T10:55:22.303Z,1006.34
2019-05-02T10:56:22.129Z,1006.35
2019-05-02T10:57:21.963Z,1006.28
2019-05-02T10:58:26.115Z,1006.15
2019-05-02T10:59:22.102Z,1006.27
2019-05-02T11:00:22.071Z,1006.50
2019-05-02T11:01:21.941Z,1006.51
2019-05-02T11:02:22.228Z,1006.21
2019-05-02T11:03:22.410Z,1006.14
2019-05-02T11:04:22.468Z,1006.13
2019-05-02T11:05:22.577Z,1006.12
2019-05-02T11:06:22.248Z,1006.07
2019-05-02T11:07:22.753Z,1006.09
2019-05-02T11:08:22.328Z,1006.18
2019-05-02T11:09:22.502Z,1006.14
2019-05-02T11:10:21.776Z,1006.12
2019-05-02T11:11:21.886Z,1006.15
2019-05-02T11:12:23.920Z,1006.18
2019-05-02T11:13:21.784Z,1006.04
2019-05-02T11:14:20.173Z,1006.01
2019-05-02T11:15:21.603Z,1006.03
2019-05-02T11:16:21.665Z,1006.00
2019-05-02T11:17:20.064Z,1005.82
2019-05-02T11:18:22.045Z,1005.85
2019-05-02T11:19:21.392Z,1005.89
2019-05-02T11:20:19.975Z,1005.85
2019-05-02T11:21:19.941Z,1005.94
2019-05-02T11:22:19.907Z,1005.94
2019-05-02T11:23:22.006Z,1006.01
2019-05-02T11:24:19.833Z,1006.01
2019-05-02T11:25:19.798Z,1005.98
2019-05-02T11:26:23.240Z,1006.06
2019-05-02T11:27:19.739Z,1006.01
2019-05-02T11:28:21.903Z,1005.95
2019-05-02T11:29:19.666Z,1005.98
2019-05-02T11:30:22.431Z,1006.00
2019-05-02T11:31:21.712Z,1005.98
2019-05-02T11:32:19.569Z,1005.96
2019-05-02T11:33:19.586Z,1005.91
2019-05-02T11:34:19.505Z,1005.89
2019-05-02T11:35:19.467Z,1005.84
2019-05-02T11:36:19.454Z,1005.71
2019-05-02T11:37:19.396Z,1005.71
2019-05-02T11:38:19.615Z,1005.80
2019-05-02T11:39:26.951Z,1005.83
2019-05-02T11:40:19.305Z,1005.84
2019-05-02T11:41:19.294Z,1005.98
2019-05-02T11:42:23.210Z,1005.87
2019-05-02T11:43:19.191Z,1005.79
2019-05-02T11:44:19.168Z,1005.85
2019-05-02T11:45:19.134Z,1005.87
2019-05-02T11:46:19.126Z,1005.86
2019-05-02T11:47:22.707Z,1005.76
2019-05-02T11:48:19.848Z,1005.76
2019-05-02T11:49:18.992Z,1005.68
2019-05-02T11:50:18.958Z,1005.65
2019-05-02T11:51:18.926Z,1005.61
2019-05-02T11:52:18.926Z,1005.59
2019-05-02T11:53:29.414Z,1005.77
2019-05-02T11:54:18.830Z,1005.59
2019-05-02T11:55:23.361Z,1005.62
2019-05-02T11:56:18.758Z,1005.83
2019-05-02T11:57:22.811Z,1005.68
2019-05-02T11:58:18.696Z,1005.60
2019-05-02T11:59:20.804Z,1005.58
2019-05-02T12:00:18.622Z,1005.71
2019-05-02T12:01:20.171Z,1005.70
2019-05-02T12:02:19.074Z,1005.71
2019-05-02T12:03:18.521Z,1005.65
2019-05-02T12:04:18.498Z,1005.66
2019-05-02T12:05:18.485Z,1005.64